sensor_id;sensor_type;location;lat;lon;timestamp;temperature;humidity
67748;HTU21D;54543;50.712;6.070;2022-10-18T00:01:41;16.07;89.12
67748;HTU21D;54543;50.712;6.070;2022-10-18T00:04:06;16.04;89.47
67748;HTU21D;54543;50.712;6.070;2022-10-18T00:06:32;15.97;90.30
67748;HTU21D;54543;50.712;6.070;2022-10-18T00:08:57;15.91;90.39
67748;HTU21D;54543;50.712;6.070;2022-10-18T00:11:23;15.90;90.41
67748;HTU21D;54543;50.712;6.070;2022-10-18T00:13:49;15.92;90.30
67748;HTU21D;54543;50.712;6.070;2022-10-18T00:16:16;15.95;90.31
67748;HTU21D;54543;50.712;6.070;2022-10-18T00:18:42;15.99;90.24
67748;HTU21D;54543;50.712;6.070;2022-10-18T00:21:14;16.04;90.06
67748;HTU21D;54543;50.712;6.070;2022-10-18T00:23:40;16.07;89.91
67748;HTU21D;54543;50.712;6.070;2022-10-18T00:26:15;16.08;90.00
67748;HTU21D;54543;50.712;6.070;2022-10-18T00:28:41;16.04;91.18
67748;HTU21D;54543;50.712;6.070;2022-10-18T00:31:17;16.05;90.28
67748;HTU21D;54543;50.712;6.070;2022-10-18T00:33:45;16.06;90.34
67748;HTU21D;54543;50.712;6.070;2022-10-18T00:36:11;16.05;90.66
67748;HTU21D;54543;50.712;6.070;2022-10-18T00:38:37;16.03;90.89
67748;HTU21D;54543;50.712;6.070;2022-10-18T00:41:04;16.00;90.66
67748;HTU21D;54543;50.712;6.070;2022-10-18T00:43:30;16.02;90.60
67748;HTU21D;54543;50.712;6.070;2022-10-18T00:45:56;16.06;90.50
67748;HTU21D;54543;50.712;6.070;2022-10-18T00:48:23;16.08;90.39
67748;HTU21D;54543;50.712;6.070;2022-10-18T00:50:50;16.13;90.21
67748;HTU21D;54543;50.712;6.070;2022-10-18T00:53:19;16.19;90.00
67748;HTU21D;54543;50.712;6.070;2022-10-18T00:55:45;16.22;89.86
67748;HTU21D;54543;50.712;6.070;2022-10-18T00:58:14;16.27;89.64
67748;HTU21D;54543;50.712;6.070;2022-10-18T01:00:40;16.29;89.54
67748;HTU21D;54543;50.712;6.070;2022-10-18T01:03:07;16.33;89.41
67748;HTU21D;54543;50.712;6.070;2022-10-18T01:05:37;16.34;89.32
67748;HTU21D;54543;50.712;6.070;2022-10-18T01:14:14;16.36;89.36
67748;HTU21D;54543;50.712;6.070;2022-10-18T01:32:52;16.41;88.94
67748;HTU21D;54543;50.712;6.070;2022-10-18T01:35:25;16.41;88.86
67748;HTU21D;54543;50.712;6.070;2022-10-18T01:37:55;16.41;88.82
67748;HTU21D;54543;50.712;6.070;2022-10-18T01:40:23;16.43;88.76
67748;HTU21D;54543;50.712;6.070;2022-10-18T01:42:49;16.42;88.72
67748;HTU21D;54543;50.712;6.070;2022-10-18T01:45:16;16.41;88.76
67748;HTU21D;54543;50.712;6.070;2022-10-18T01:47:43;16.43;88.77
67748;HTU21D;54543;50.712;6.070;2022-10-18T01:50:10;16.42;88.76
67748;HTU21D;54543;50.712;6.070;2022-10-18T01:52:48;16.44;88.80
67748;HTU21D;54543;50.712;6.070;2022-10-18T01:55:14;16.41;88.82
67748;HTU21D;54543;50.712;6.070;2022-10-18T01:57:44;16.44;88.83
67748;HTU21D;54543;50.712;6.070;2022-10-18T02:00:22;16.43;88.85
67748;HTU21D;54543;50.712;6.070;2022-10-18T02:03:04;16.44;88.83
67748;HTU21D;54543;50.712;6.070;2022-10-18T02:05:58;16.43;88.91
67748;HTU21D;54543;50.712;6.070;2022-10-18T02:08:43;16.42;89.00
67748;HTU21D;54543;50.712;6.070;2022-10-18T02:11:15;16.43;88.88
67748;HTU21D;54543;50.712;6.070;2022-10-18T02:13:47;16.44;88.87
67748;HTU21D;54543;50.712;6.070;2022-10-18T02:16:19;16.45;88.85
67748;HTU21D;54543;50.712;6.070;2022-10-18T02:18:54;16.46;88.86
67748;HTU21D;54543;50.712;6.070;2022-10-18T02:21:21;16.47;88.85
67748;HTU21D;54543;50.712;6.070;2022-10-18T02:23:47;16.46;88.88
67748;HTU21D;54543;50.712;6.070;2022-10-18T02:26:14;16.43;88.99
67748;HTU21D;54543;50.712;6.070;2022-10-18T02:28:41;16.41;89.04
67748;HTU21D;54543;50.712;6.070;2022-10-18T02:34:20;16.34;89.52
67748;HTU21D;54543;50.712;6.070;2022-10-18T02:36:50;16.33;89.48
67748;HTU21D;54543;50.712;6.070;2022-10-18T02:39:21;16.35;89.42
67748;HTU21D;54543;50.712;6.070;2022-10-18T02:41:47;16.36;89.38
67748;HTU21D;54543;50.712;6.070;2022-10-18T02:44:13;16.36;89.36
67748;HTU21D;54543;50.712;6.070;2022-10-18T02:46:39;16.34;89.43
67748;HTU21D;54543;50.712;6.070;2022-10-18T02:49:05;16.34;89.46
67748;HTU21D;54543;50.712;6.070;2022-10-18T02:51:31;16.33;89.59
67748;HTU21D;54543;50.712;6.070;2022-10-18T02:53:57;16.32;89.54
67748;HTU21D;54543;50.712;6.070;2022-10-18T02:56:22;16.31;89.55
67748;HTU21D;54543;50.712;6.070;2022-10-18T02:58:48;16.32;89.50
67748;HTU21D;54543;50.712;6.070;2022-10-18T03:01:13;16.32;89.46
67748;HTU21D;54543;50.712;6.070;2022-10-18T03:03:39;16.33;89.41
67748;HTU21D;54543;50.712;6.070;2022-10-18T03:06:04;16.33;89.36
67748;HTU21D;54543;50.712;6.070;2022-10-18T03:08:30;16.34;89.30
67748;HTU21D;54543;50.712;6.070;2022-10-18T03:10:55;16.34;89.26
67748;HTU21D;54543;50.712;6.070;2022-10-18T03:13:21;16.33;89.23
67748;HTU21D;54543;50.712;6.070;2022-10-18T03:15:47;16.32;89.18
67748;HTU21D;54543;50.712;6.070;2022-10-18T03:18:13;16.33;89.14
67748;HTU21D;54543;50.712;6.070;2022-10-18T03:20:39;16.33;89.08
67748;HTU21D;54543;50.712;6.070;2022-10-18T03:23:04;16.31;89.07
67748;HTU21D;54543;50.712;6.070;2022-10-18T03:25:31;16.31;89.09
67748;HTU21D;54543;50.712;6.070;2022-10-18T03:27:57;16.30;89.14
67748;HTU21D;54543;50.712;6.070;2022-10-18T03:30:23;16.29;89.12
67748;HTU21D;54543;50.712;6.070;2022-10-18T03:32:49;16.28;89.05
67748;HTU21D;54543;50.712;6.070;2022-10-18T03:35:14;16.26;89.02
67748;HTU21D;54543;50.712;6.070;2022-10-18T03:37:40;16.24;89.00
67748;HTU21D;54543;50.712;6.070;2022-10-18T03:40:06;16.24;89.05
67748;HTU21D;54543;50.712;6.070;2022-10-18T03:42:32;16.21;89.09
67748;HTU21D;54543;50.712;6.070;2022-10-18T03:44:57;16.21;89.11
67748;HTU21D;54543;50.712;6.070;2022-10-18T03:47:23;16.19;89.10
67748;HTU21D;54543;50.712;6.070;2022-10-18T03:49:48;16.20;89.10
67748;HTU21D;54543;50.712;6.070;2022-10-18T03:52:14;16.21;89.12
67748;HTU21D;54543;50.712;6.070;2022-10-18T03:54:39;16.19;89.10
67748;HTU21D;54543;50.712;6.070;2022-10-18T03:57:05;16.19;89.12
67748;HTU21D;54543;50.712;6.070;2022-10-18T03:59:31;16.21;89.13
67748;HTU21D;54543;50.712;6.070;2022-10-18T04:01:56;16.20;89.16
67748;HTU21D;54543;50.712;6.070;2022-10-18T04:04:21;16.22;89.13
67748;HTU21D;54543;50.712;6.070;2022-10-18T04:06:47;16.21;89.13
67748;HTU21D;54543;50.712;6.070;2022-10-18T04:09:13;16.22;89.09
67748;HTU21D;54543;50.712;6.070;2022-10-18T04:11:38;16.21;89.09
67748;HTU21D;54543;50.712;6.070;2022-10-18T04:14:04;16.21;89.03
67748;HTU21D;54543;50.712;6.070;2022-10-18T04:16:30;16.20;89.02
67748;HTU21D;54543;50.712;6.070;2022-10-18T04:18:55;16.19;89.09
67748;HTU21D;54543;50.712;6.070;2022-10-18T04:21:21;16.20;89.11
67748;HTU21D;54543;50.712;6.070;2022-10-18T04:23:47;16.21;89.11
67748;HTU21D;54543;50.712;6.070;2022-10-18T04:26:13;16.21;89.10
67748;HTU21D;54543;50.712;6.070;2022-10-18T04:28:39;16.22;89.11
67748;HTU21D;54543;50.712;6.070;2022-10-18T04:31:05;16.21;89.09
67748;HTU21D;54543;50.712;6.070;2022-10-18T04:33:30;16.22;89.09
67748;HTU21D;54543;50.712;6.070;2022-10-18T04:35:56;16.24;89.11
67748;HTU21D;54543;50.712;6.070;2022-10-18T04:38:22;16.24;89.13
67748;HTU21D;54543;50.712;6.070;2022-10-18T04:40:47;16.22;89.12
67748;HTU21D;54543;50.712;6.070;2022-10-18T04:43:13;16.22;89.16
67748;HTU21D;54543;50.712;6.070;2022-10-18T04:45:38;16.24;89.17
67748;HTU21D;54543;50.712;6.070;2022-10-18T04:48:04;16.25;89.20
67748;HTU21D;54543;50.712;6.070;2022-10-18T04:50:30;16.25;89.18
67748;HTU21D;54543;50.712;6.070;2022-10-18T04:52:55;16.26;89.19
67748;HTU21D;54543;50.712;6.070;2022-10-18T04:55:21;16.25;89.15
67748;HTU21D;54543;50.712;6.070;2022-10-18T04:57:46;16.25;89.15
67748;HTU21D;54543;50.712;6.070;2022-10-18T05:00:12;16.24;89.14
67748;HTU21D;54543;50.712;6.070;2022-10-18T05:02:38;16.26;89.15
67748;HTU21D;54543;50.712;6.070;2022-10-18T05:05:04;16.27;89.14
67748;HTU21D;54543;50.712;6.070;2022-10-18T05:07:29;16.27;89.13
67748;HTU21D;54543;50.712;6.070;2022-10-18T05:09:55;16.28;89.16
67748;HTU21D;54543;50.712;6.070;2022-10-18T05:12:20;16.29;89.12
67748;HTU21D;54543;50.712;6.070;2022-10-18T05:14:47;16.29;89.05
67748;HTU21D;54543;50.712;6.070;2022-10-18T05:17:12;16.29;88.90
67748;HTU21D;54543;50.712;6.070;2022-10-18T05:19:38;16.27;88.84
67748;HTU21D;54543;50.712;6.070;2022-10-18T05:22:04;16.26;88.92
67748;HTU21D;54543;50.712;6.070;2022-10-18T05:24:29;16.24;88.94
67748;HTU21D;54543;50.712;6.070;2022-10-18T05:26:55;16.20;89.02
67748;HTU21D;54543;50.712;6.070;2022-10-18T05:29:20;16.18;88.98
67748;HTU21D;54543;50.712;6.070;2022-10-18T05:31:47;16.17;89.07
67748;HTU21D;54543;50.712;6.070;2022-10-18T05:34:13;16.15;89.22
67748;HTU21D;54543;50.712;6.070;2022-10-18T05:36:38;16.14;89.28
67748;HTU21D;54543;50.712;6.070;2022-10-18T05:39:04;16.14;89.31
67748;HTU21D;54543;50.712;6.070;2022-10-18T05:41:30;16.13;89.34
67748;HTU21D;54543;50.712;6.070;2022-10-18T05:43:56;16.14;89.41
67748;HTU21D;54543;50.712;6.070;2022-10-18T05:46:21;16.13;89.38
67748;HTU21D;54543;50.712;6.070;2022-10-18T05:48:50;16.13;89.34
67748;HTU21D;54543;50.712;6.070;2022-10-18T05:51:17;16.14;89.34
67748;HTU21D;54543;50.712;6.070;2022-10-18T05:53:43;16.15;89.33
67748;HTU21D;54543;50.712;6.070;2022-10-18T05:56:09;16.14;89.28
67748;HTU21D;54543;50.712;6.070;2022-10-18T05:58:40;16.17;89.24
67748;HTU21D;54543;50.712;6.070;2022-10-18T06:01:06;16.17;89.22
67748;HTU21D;54543;50.712;6.070;2022-10-18T06:03:32;16.17;89.25
67748;HTU21D;54543;50.712;6.070;2022-10-18T06:05:59;16.17;89.20
67748;HTU21D;54543;50.712;6.070;2022-10-18T06:08:25;16.16;89.28
67748;HTU21D;54543;50.712;6.070;2022-10-18T06:10:50;16.17;89.27
67748;HTU21D;54543;50.712;6.070;2022-10-18T06:13:16;16.16;89.31
67748;HTU21D;54543;50.712;6.070;2022-10-18T06:15:41;16.16;89.34
67748;HTU21D;54543;50.712;6.070;2022-10-18T06:18:07;16.18;89.31
67748;HTU21D;54543;50.712;6.070;2022-10-18T06:20:32;16.20;89.29
67748;HTU21D;54543;50.712;6.070;2022-10-18T06:22:58;16.21;89.11
67748;HTU21D;54543;50.712;6.070;2022-10-18T06:25:23;16.20;89.12
67748;HTU21D;54543;50.712;6.070;2022-10-18T06:27:48;16.17;89.15
67748;HTU21D;54543;50.712;6.070;2022-10-18T06:30:14;16.15;89.28
67748;HTU21D;54543;50.712;6.070;2022-10-18T06:32:40;16.14;89.34
67748;HTU21D;54543;50.712;6.070;2022-10-18T06:35:05;16.13;89.41
67748;HTU21D;54543;50.712;6.070;2022-10-18T06:37:31;16.13;89.47
67748;HTU21D;54543;50.712;6.070;2022-10-18T06:39:57;16.15;89.47
67748;HTU21D;54543;50.712;6.070;2022-10-18T06:42:22;16.18;89.47
67748;HTU21D;54543;50.712;6.070;2022-10-18T06:44:48;16.19;89.37
67748;HTU21D;54543;50.712;6.070;2022-10-18T06:47:14;16.20;89.29
67748;HTU21D;54543;50.712;6.070;2022-10-18T06:49:39;16.21;89.29
67748;HTU21D;54543;50.712;6.070;2022-10-18T06:52:04;16.21;89.27
67748;HTU21D;54543;50.712;6.070;2022-10-18T06:54:32;16.25;89.22
67748;HTU21D;54543;50.712;6.070;2022-10-18T06:56:57;16.24;89.18
67748;HTU21D;54543;50.712;6.070;2022-10-18T06:59:23;16.27;89.18
67748;HTU21D;54543;50.712;6.070;2022-10-18T07:01:48;16.27;89.15
67748;HTU21D;54543;50.712;6.070;2022-10-18T07:04:14;16.29;89.10
67748;HTU21D;54543;50.712;6.070;2022-10-18T07:06:39;16.30;89.05
67748;HTU21D;54543;50.712;6.070;2022-10-18T07:09:05;16.28;88.96
67748;HTU21D;54543;50.712;6.070;2022-10-18T07:11:30;16.27;89.01
67748;HTU21D;54543;50.712;6.070;2022-10-18T07:14:00;16.28;89.12
67748;HTU21D;54543;50.712;6.070;2022-10-18T07:16:28;16.28;89.21
67748;HTU21D;54543;50.712;6.070;2022-10-18T07:18:53;16.29;89.24
67748;HTU21D;54543;50.712;6.070;2022-10-18T07:21:22;16.29;89.26
67748;HTU21D;54543;50.712;6.070;2022-10-18T07:23:49;16.28;89.34
67748;HTU21D;54543;50.712;6.070;2022-10-18T07:26:16;16.28;89.41
67748;HTU21D;54543;50.712;6.070;2022-10-18T07:28:44;16.30;89.41
67748;HTU21D;54543;50.712;6.070;2022-10-18T07:31:10;16.32;89.39
67748;HTU21D;54543;50.712;6.070;2022-10-18T07:33:36;16.35;89.34
67748;HTU21D;54543;50.712;6.070;2022-10-18T07:36:07;16.36;89.31
67748;HTU21D;54543;50.712;6.070;2022-10-18T07:38:34;16.37;89.38
67748;HTU21D;54543;50.712;6.070;2022-10-18T07:41:01;16.43;89.41
67748;HTU21D;54543;50.712;6.070;2022-10-18T07:43:27;16.48;89.36
67748;HTU21D;54543;50.712;6.070;2022-10-18T07:45:54;16.54;89.26
67748;HTU21D;54543;50.712;6.070;2022-10-18T07:48:20;16.57;89.24
67748;HTU21D;54543;50.712;6.070;2022-10-18T07:50:45;16.57;88.97
67748;HTU21D;54543;50.712;6.070;2022-10-18T07:53:11;16.58;89.01
67748;HTU21D;54543;50.712;6.070;2022-10-18T07:55:36;16.59;88.97
67748;HTU21D;54543;50.712;6.070;2022-10-18T07:58:02;16.59;89.05
67748;HTU21D;54543;50.712;6.070;2022-10-18T08:00:28;16.59;89.15
67748;HTU21D;54543;50.712;6.070;2022-10-18T08:02:58;16.61;89.16
67748;HTU21D;54543;50.712;6.070;2022-10-18T08:05:25;16.64;89.05
67748;HTU21D;54543;50.712;6.070;2022-10-18T08:07:51;16.66;88.82
67748;HTU21D;54543;50.712;6.070;2022-10-18T08:10:18;16.67;88.66
67748;HTU21D;54543;50.712;6.070;2022-10-18T08:12:43;16.67;88.76
67748;HTU21D;54543;50.712;6.070;2022-10-18T08:15:09;16.71;88.80
67748;HTU21D;54543;50.712;6.070;2022-10-18T08:17:35;16.73;88.64
67748;HTU21D;54543;50.712;6.070;2022-10-18T08:20:00;16.72;88.64
67748;HTU21D;54543;50.712;6.070;2022-10-18T08:22:26;16.69;88.74
67748;HTU21D;54543;50.712;6.070;2022-10-18T08:24:51;16.64;88.90
67748;HTU21D;54543;50.712;6.070;2022-10-18T08:27:17;16.64;89.05
67748;HTU21D;54543;50.712;6.070;2022-10-18T08:29:42;16.66;89.17
67748;HTU21D;54543;50.712;6.070;2022-10-18T08:32:08;16.71;89.19
67748;HTU21D;54543;50.712;6.070;2022-10-18T08:34:34;16.76;89.15
67748;HTU21D;54543;50.712;6.070;2022-10-18T08:37:01;16.81;89.01
67748;HTU21D;54543;50.712;6.070;2022-10-18T08:39:26;16.86;88.75
67748;HTU21D;54543;50.712;6.070;2022-10-18T08:42:20;16.90;88.64
67748;HTU21D;54543;50.712;6.070;2022-10-18T08:44:49;16.92;88.34
67748;HTU21D;54543;50.712;6.070;2022-10-18T08:47:42;16.95;88.57
67748;HTU21D;54543;50.712;6.070;2022-10-18T08:50:15;17.00;88.30
67748;HTU21D;54543;50.712;6.070;2022-10-18T08:55:16;17.05;88.14
67748;HTU21D;54543;50.712;6.070;2022-10-18T08:57:46;17.03;88.12
67748;HTU21D;54543;50.712;6.070;2022-10-18T09:00:23;17.04;87.99
67748;HTU21D;54543;50.712;6.070;2022-10-18T09:03:00;17.02;87.94
67748;HTU21D;54543;50.712;6.070;2022-10-18T09:06:10;17.00;88.26
67748;HTU21D;54543;50.712;6.070;2022-10-18T09:08:40;16.98;88.38
67748;HTU21D;54543;50.712;6.070;2022-10-18T09:22:47;17.24;88.25
67748;HTU21D;54543;50.712;6.070;2022-10-18T09:25:18;17.32;88.25
67748;HTU21D;54543;50.712;6.070;2022-10-18T09:27:53;17.41;88.15
67748;HTU21D;54543;50.712;6.070;2022-10-18T09:33:37;17.59;87.96
67748;HTU21D;54543;50.712;6.070;2022-10-18T09:36:23;17.66;87.80
67748;HTU21D;54543;50.712;6.070;2022-10-18T09:38:55;17.70;87.39
67748;HTU21D;54543;50.712;6.070;2022-10-18T09:41:30;17.72;87.18
67748;HTU21D;54543;50.712;6.070;2022-10-18T09:44:02;17.74;87.06
67748;HTU21D;54543;50.712;6.070;2022-10-18T09:46:35;17.75;87.04
67748;HTU21D;54543;50.712;6.070;2022-10-18T09:51:41;17.76;86.88
67748;HTU21D;54543;50.712;6.070;2022-10-18T09:59:45;17.84;86.48
67748;HTU21D;54543;50.712;6.070;2022-10-18T10:02:16;17.85;86.67
67748;HTU21D;54543;50.712;6.070;2022-10-18T10:04:42;17.91;86.64
67748;HTU21D;54543;50.712;6.070;2022-10-18T10:07:12;17.93;86.58
67748;HTU21D;54543;50.712;6.070;2022-10-18T10:09:55;17.93;86.56
67748;HTU21D;54543;50.712;6.070;2022-10-18T10:12:28;17.92;86.69
67748;HTU21D;54543;50.712;6.070;2022-10-18T10:14:54;17.95;86.85
67748;HTU21D;54543;50.712;6.070;2022-10-18T10:17:31;18.04;86.78
67748;HTU21D;54543;50.712;6.070;2022-10-18T10:20:17;18.09;86.54
67748;HTU21D;54543;50.712;6.070;2022-10-18T10:22:44;18.11;86.40
67748;HTU21D;54543;50.712;6.070;2022-10-18T10:25:33;18.18;86.38
67748;HTU21D;54543;50.712;6.070;2022-10-18T10:28:20;18.25;86.24
67748;HTU21D;54543;50.712;6.070;2022-10-18T10:30:46;18.28;85.96
67748;HTU21D;54543;50.712;6.070;2022-10-18T10:33:35;18.27;85.36
67748;HTU21D;54543;50.712;6.070;2022-10-18T10:36:05;18.30;85.93
67748;HTU21D;54543;50.712;6.070;2022-10-18T10:38:39;18.35;85.52
67748;HTU21D;54543;50.712;6.070;2022-10-18T10:41:17;18.42;85.30
67748;HTU21D;54543;50.712;6.070;2022-10-18T10:43:44;18.47;85.13
67748;HTU21D;54543;50.712;6.070;2022-10-18T10:46:18;18.44;84.52
67748;HTU21D;54543;50.712;6.070;2022-10-18T10:51:26;18.53;85.34
67748;HTU21D;54543;50.712;6.070;2022-10-18T10:54:22;18.59;85.03
67748;HTU21D;54543;50.712;6.070;2022-10-18T10:56:55;18.62;84.89
67748;HTU21D;54543;50.712;6.070;2022-10-18T10:59:24;18.59;84.91
67748;HTU21D;54543;50.712;6.070;2022-10-18T11:04:47;18.46;85.06
67748;HTU21D;54543;50.712;6.070;2022-10-18T11:15:37;17.99;85.34
67748;HTU21D;54543;50.712;6.070;2022-10-18T11:20:52;17.72;85.87
67748;HTU21D;54543;50.712;6.070;2022-10-18T11:23:25;17.66;86.16
67748;HTU21D;54543;50.712;6.070;2022-10-18T11:42:10;19.50;79.75
67748;HTU21D;54543;50.712;6.070;2022-10-18T11:53:17;18.40;82.98
67748;HTU21D;54543;50.712;6.070;2022-10-18T12:06:36;19.54;80.17
67748;HTU21D;54543;50.712;6.070;2022-10-18T12:09:31;19.80;79.47
67748;HTU21D;54543;50.712;6.070;2022-10-18T12:12:08;20.01;78.43
67748;HTU21D;54543;50.712;6.070;2022-10-18T12:14:48;20.14;77.44
67748;HTU21D;54543;50.712;6.070;2022-10-18T12:17:19;20.27;77.34
67748;HTU21D;54543;50.712;6.070;2022-10-18T12:19:48;20.43;77.76
67748;HTU21D;54543;50.712;6.070;2022-10-18T12:22:27;20.65;76.82
67748;HTU21D;54543;50.712;6.070;2022-10-18T12:24:56;20.87;75.76
67748;HTU21D;54543;50.712;6.070;2022-10-18T12:27:31;21.00;75.14
67748;HTU21D;54543;50.712;6.070;2022-10-18T12:30:31;21.09;73.93
67748;HTU21D;54543;50.712;6.070;2022-10-18T12:33:13;21.06;73.38
67748;HTU21D;54543;50.712;6.070;2022-10-18T12:38:34;20.70;74.86
67748;HTU21D;54543;50.712;6.070;2022-10-18T12:41:01;20.33;77.02
67748;HTU21D;54543;50.712;6.070;2022-10-18T12:43:30;20.02;78.29
67748;HTU21D;54543;50.712;6.070;2022-10-18T12:46:06;19.79;78.92
67748;HTU21D;54543;50.712;6.070;2022-10-18T12:48:42;19.55;79.24
67748;HTU21D;54543;50.712;6.070;2022-10-18T12:51:16;19.37;80.26
67748;HTU21D;54543;50.712;6.070;2022-10-18T12:53:44;19.26;80.62
67748;HTU21D;54543;50.712;6.070;2022-10-18T13:09:38;19.12;80.93
67748;HTU21D;54543;50.712;6.070;2022-10-18T13:14:52;19.14;80.41
67748;HTU21D;54543;50.712;6.070;2022-10-18T13:17:44;19.21;80.69
67748;HTU21D;54543;50.712;6.070;2022-10-18T13:20:22;19.24;80.71
67748;HTU21D;54543;50.712;6.070;2022-10-18T13:28:32;19.28;80.27
67748;HTU21D;54543;50.712;6.070;2022-10-18T13:33:36;19.07;80.24
67748;HTU21D;54543;50.712;6.070;2022-10-18T13:36:17;18.94;80.93
67748;HTU21D;54543;50.712;6.070;2022-10-18T13:41:25;18.62;81.65
67748;HTU21D;54543;50.712;6.070;2022-10-18T14:08:14;19.89;78.20
67748;HTU21D;54543;50.712;6.070;2022-10-18T14:14:15;19.77;77.51
67748;HTU21D;54543;50.712;6.070;2022-10-18T14:16:47;19.73;78.69
67748;HTU21D;54543;50.712;6.070;2022-10-18T14:22:23;19.72;77.92
67748;HTU21D;54543;50.712;6.070;2022-10-18T14:24:57;19.71;78.11
67748;HTU21D;54543;50.712;6.070;2022-10-18T14:29:49;19.71;79.05
67748;HTU21D;54543;50.712;6.070;2022-10-18T14:32:26;19.83;78.19
67748;HTU21D;54543;50.712;6.070;2022-10-18T14:34:53;19.92;78.28
67748;HTU21D;54543;50.712;6.070;2022-10-18T14:37:28;19.89;77.50
67748;HTU21D;54543;50.712;6.070;2022-10-18T14:39:54;19.84;75.46
67748;HTU21D;54543;50.712;6.070;2022-10-18T14:42:24;19.88;78.30
67748;HTU21D;54543;50.712;6.070;2022-10-18T14:44:50;19.97;78.59
67748;HTU21D;54543;50.712;6.070;2022-10-18T14:47:24;20.04;78.08
67748;HTU21D;54543;50.712;6.070;2022-10-18T14:49:51;20.05;78.48
67748;HTU21D;54543;50.712;6.070;2022-10-18T14:52:30;19.91;76.47
67748;HTU21D;54543;50.712;6.070;2022-10-18T14:54:57;19.73;78.53
67748;HTU21D;54543;50.712;6.070;2022-10-18T14:57:32;19.56;78.20
67748;HTU21D;54543;50.712;6.070;2022-10-18T15:00:00;19.39;79.27
67748;HTU21D;54543;50.712;6.070;2022-10-18T15:02:32;19.20;79.17
67748;HTU21D;54543;50.712;6.070;2022-10-18T15:05:13;19.05;79.33
67748;HTU21D;54543;50.712;6.070;2022-10-18T15:07:44;19.06;80.89
67748;HTU21D;54543;50.712;6.070;2022-10-18T15:10:19;19.10;80.77
67748;HTU21D;54543;50.712;6.070;2022-10-18T15:12:46;19.06;80.95
67748;HTU21D;54543;50.712;6.070;2022-10-18T15:15:26;19.11;80.75
67748;HTU21D;54543;50.712;6.070;2022-10-18T15:17:52;19.23;82.35
67748;HTU21D;54543;50.712;6.070;2022-10-18T15:20:22;19.35;82.32
67748;HTU21D;54543;50.712;6.070;2022-10-18T15:22:50;19.38;82.37
67748;HTU21D;54543;50.712;6.070;2022-10-18T15:25:24;19.36;81.39
67748;HTU21D;54543;50.712;6.070;2022-10-18T15:27:55;19.30;81.77
67748;HTU21D;54543;50.712;6.070;2022-10-18T15:30:30;19.27;81.71
67748;HTU21D;54543;50.712;6.070;2022-10-18T15:33:03;19.20;81.30
67748;HTU21D;54543;50.712;6.070;2022-10-18T15:35:30;19.09;81.06
67748;HTU21D;54543;50.712;6.070;2022-10-18T15:38:11;18.96;80.91
67748;HTU21D;54543;50.712;6.070;2022-10-18T15:40:38;18.81;80.84
67748;HTU21D;54543;50.712;6.070;2022-10-18T15:50:54;18.29;80.35
67748;HTU21D;54543;50.712;6.070;2022-10-18T15:58:43;17.97;80.26
67748;HTU21D;54543;50.712;6.070;2022-10-18T16:01:21;17.88;80.42
67748;HTU21D;54543;50.712;6.070;2022-10-18T16:03:48;17.80;80.63
67748;HTU21D;54543;50.712;6.070;2022-10-18T16:06:16;17.72;80.65
67748;HTU21D;54543;50.712;6.070;2022-10-18T16:08:50;17.65;80.53
67748;HTU21D;54543;50.712;6.070;2022-10-18T16:11:21;17.56;80.65
67748;HTU21D;54543;50.712;6.070;2022-10-18T16:13:47;17.48;80.81
67748;HTU21D;54543;50.712;6.070;2022-10-18T16:18:45;17.32;81.01
67748;HTU21D;54543;50.712;6.070;2022-10-18T16:21:25;17.25;81.01
67748;HTU21D;54543;50.712;6.070;2022-10-18T16:23:52;17.15;81.13
67748;HTU21D;54543;50.712;6.070;2022-10-18T16:26:18;17.05;81.30
67748;HTU21D;54543;50.712;6.070;2022-10-18T16:28:44;16.99;81.38
67748;HTU21D;54543;50.712;6.070;2022-10-18T16:31:15;16.88;81.43
67748;HTU21D;54543;50.712;6.070;2022-10-18T16:33:42;16.79;81.69
67748;HTU21D;54543;50.712;6.070;2022-10-18T16:36:12;16.71;81.79
67748;HTU21D;54543;50.712;6.070;2022-10-18T16:38:39;16.62;81.88
67748;HTU21D;54543;50.712;6.070;2022-10-18T16:41:06;16.55;81.97
67748;HTU21D;54543;50.712;6.070;2022-10-18T16:43:33;16.46;82.05
67748;HTU21D;54543;50.712;6.070;2022-10-18T16:45:59;16.37;82.29
67748;HTU21D;54543;50.712;6.070;2022-10-18T16:48:26;16.30;82.49
67748;HTU21D;54543;50.712;6.070;2022-10-18T16:50:53;16.25;82.43
67748;HTU21D;54543;50.712;6.070;2022-10-18T16:53:20;16.16;82.43
67748;HTU21D;54543;50.712;6.070;2022-10-18T16:55:51;16.08;82.52
67748;HTU21D;54543;50.712;6.070;2022-10-18T16:58:19;16.00;82.68
67748;HTU21D;54543;50.712;6.070;2022-10-18T17:00:44;15.91;82.75
67748;HTU21D;54543;50.712;6.070;2022-10-18T17:03:12;15.84;82.91
67748;HTU21D;54543;50.712;6.070;2022-10-18T17:05:38;15.78;82.97
67748;HTU21D;54543;50.712;6.070;2022-10-18T17:08:03;15.71;83.02
67748;HTU21D;54543;50.712;6.070;2022-10-18T17:10:29;15.67;83.06
67748;HTU21D;54543;50.712;6.070;2022-10-18T17:12:55;15.63;83.26
67748;HTU21D;54543;50.712;6.070;2022-10-18T17:15:20;15.60;83.29
67748;HTU21D;54543;50.712;6.070;2022-10-18T17:17:46;15.56;83.49
67748;HTU21D;54543;50.712;6.070;2022-10-18T17:20:24;15.53;83.68
67748;HTU21D;54543;50.712;6.070;2022-10-18T17:22:51;15.47;83.33
67748;HTU21D;54543;50.712;6.070;2022-10-18T17:25:17;15.43;83.21
67748;HTU21D;54543;50.712;6.070;2022-10-18T17:27:43;15.36;83.25
67748;HTU21D;54543;50.712;6.070;2022-10-18T17:30:11;15.28;83.39
67748;HTU21D;54543;50.712;6.070;2022-10-18T17:32:37;15.21;83.48
67748;HTU21D;54543;50.712;6.070;2022-10-18T17:35:03;15.15;83.54
67748;HTU21D;54543;50.712;6.070;2022-10-18T17:37:29;15.09;83.59
67748;HTU21D;54543;50.712;6.070;2022-10-18T17:39:55;15.02;83.78
67748;HTU21D;54543;50.712;6.070;2022-10-18T17:42:20;14.93;83.97
67748;HTU21D;54543;50.712;6.070;2022-10-18T17:44:46;14.86;84.19
67748;HTU21D;54543;50.712;6.070;2022-10-18T17:47:13;14.79;84.24
67748;HTU21D;54543;50.712;6.070;2022-10-18T17:49:38;14.74;84.30
67748;HTU21D;54543;50.712;6.070;2022-10-18T17:52:04;14.68;84.33
67748;HTU21D;54543;50.712;6.070;2022-10-18T17:54:30;14.63;84.30
67748;HTU21D;54543;50.712;6.070;2022-10-18T17:56:55;14.57;84.37
67748;HTU21D;54543;50.712;6.070;2022-10-18T17:59:21;14.53;84.43
67748;HTU21D;54543;50.712;6.070;2022-10-18T18:01:46;14.49;84.48
67748;HTU21D;54543;50.712;6.070;2022-10-18T18:04:12;14.43;84.56
67748;HTU21D;54543;50.712;6.070;2022-10-18T18:06:39;14.39;84.57
67748;HTU21D;54543;50.712;6.070;2022-10-18T18:09:07;14.36;84.55
67748;HTU21D;54543;50.712;6.070;2022-10-18T18:11:36;14.32;84.51
67748;HTU21D;54543;50.712;6.070;2022-10-18T18:14:02;14.24;84.51
67748;HTU21D;54543;50.712;6.070;2022-10-18T18:16:37;14.19;84.50
67748;HTU21D;54543;50.712;6.070;2022-10-18T18:19:04;14.11;84.60
67748;HTU21D;54543;50.712;6.070;2022-10-18T18:21:30;14.04;84.65
67748;HTU21D;54543;50.712;6.070;2022-10-18T18:23:56;13.96;84.71
67748;HTU21D;54543;50.712;6.070;2022-10-18T18:26:21;13.90;84.84
67748;HTU21D;54543;50.712;6.070;2022-10-18T18:28:47;13.84;84.87